ADDS METAR Data INFO
IDs: Format: Raw Decoded Include TAF

Data at: 0359 UTC 19 Jul 2018

KPOV 190356Z AUTO 00000KT 10SM CLR 13/12 A3010 RMK AO2 T01320116 PWINO
KPOV 190337Z AUTO 00000KT 10SM CLR 15/11 A3010 RMK AO2 T01450112 PWINO
KPOV 190317Z AUTO 00000KT 10SM CLR 15/12 A3010 RMK AO2 T01500118 PWINO
KPOV 190257Z AUTO 00000KT 10SM CLR 15/12 A3010 RMK AO2 T01510117 PWINO
KPOV 190237Z AUTO 00000KT 10SM CLR 16/11 A3009 RMK AO2 T01610110 PWINO
KPOV 190217Z AUTO 00000KT 10SM CLR 17/12 A3009 RMK AO2 T01670118 PWINO
KPOV 190156Z AUTO 02003KT 10SM CLR 19/11 A3008 RMK AO2 T01850105 PWINO
KPOV 190136Z AUTO 36003KT 10SM CLR 18/11 A3008 RMK AO2 T01830112 PWINO
KPOV 190117Z AUTO 00000KT 10SM CLR 19/11 A3007 RMK AO2 T01870114 PWINO
KPOV 190057Z AUTO 01003KT 10SM CLR 20/12 A3007 RMK AO2 T01950119 PWINO
KPOV 190036Z AUTO 36004KT 10SM CLR 20/12 A3007 RMK AO2 T02000121 PWINO
KPOV 190017Z AUTO 36004KT 10SM CLR 21/13 A3007 RMK AO2 T02100128 PWINO
KPOV 182356Z AUTO 35005KT 10SM CLR 22/13 A3007 RMK AO2 T02170132 PWINO
KPOV 182337Z AUTO 33005KT 10SM CLR 22/14 A3006 RMK AO2 T02240140 PWINO
KPOV 182317Z AUTO 33004KT 10SM CLR 21/14 A3006 RMK AO2 T02140139 PWINO
KPOV 182257Z AUTO 36003KT 10SM CLR 22/14 A3006 RMK AO2 T02150135 PWINO
KPOV 182236Z AUTO 01005KT 10SM CLR 24/11 A3006 RMK AO2 T02390110 PWINO
KPOV 182217Z AUTO 00000KT 10SM CLR 23/11 A3006 RMK AO2 T02340112 PWINO
KPOV 182156Z AUTO 34003KT 10SM CLR 23/11 A3006 RMK AO2 T02340107 PWINO
KPOV 182136Z AUTO 33003KT 10SM CLR 24/11 A3007 RMK AO2 T02420108 PWINO
KPOV 182117Z AUTO 35004KT 10SM CLR 23/11 A3007 RMK AO2 T02300113 PWINO
KPOV 182057Z AUTO 00000KT 10SM BKN050 23/11 A3007 RMK AO2 T02340113 PWINO
KPOV 182036Z AUTO 02005KT 10SM BKN050 26/13 A3007 RMK AO2 T02560128 PWINO
KPOV 182017Z AUTO 07003KT 10SM SCT050 26/10 A3007 RMK AO2 T02560104 PWINO
KPOV 181956Z AUTO 00000KT 10SM SCT050 25/10 A3008 RMK AO2 T02530102 PWINO
KPOV 181937Z AUTO 04006KT 10SM SCT050 25/12 A3008 RMK AO2 T02450115 PWINO
KPOV 181917Z AUTO 00000KT 10SM SCT050 25/11 A3009 RMK AO2 T02480112 PWINO
KPOV 181857Z AUTO 00000KT 10SM SCT050 25/10 A3009 RMK AO2 T02450099 PWINO
KPOV 181836Z AUTO 35006KT 10SM BKN050 23/12 A3010 RMK AO2 T02280117 PWINO
KPOV 181817Z AUTO 02004KT 10SM SCT050 24/11 A3010 RMK AO2 T02370110 PWINO
KPOV 181757Z AUTO 06003KT 10SM SCT050 24/11 A3010 RMK AO2 T02350114 PWINO
KPOV 181736Z AUTO 31005KT 10SM SCT050 24/11 A3010 RMK AO2 T02350110 PWINO
KPOV 181717Z AUTO 34005KT 10SM BKN050 24/11 A3010 RMK AO2 T02350106 PWINO
KPOV 181656Z AUTO 31005KT 10SM BKN048 22/11 A3011 RMK AO2 T02240113 PWINO
KPOV 181636Z AUTO 01006KT 10SM SCT048 24/11 A3011 RMK AO2 T02370107 PWINO
KPOV 181617Z AUTO 03004KT 10SM SCT050 23/11 A3011 RMK AO2 T02250106 PWINO
KPOV 181556Z AUTO 03005KT 10SM SCT046 22/11 A3011 RMK AO2 T02190108 PWINO
KPOV 181537Z AUTO 34003KT 10SM BKN044 22/11 A3012 RMK AO2 T02210112 PWINO
KPOV 181516Z AUTO 36006KT 10SM SCT038 BKN046 BKN050 21/12 A3012 RMK AO2 T02130119 PWINO
KPOV 181456Z AUTO 35003KT 10SM BKN038 OVC043 21/12 A3012 RMK AO2 T02100115 PWINO
KPOV 181436Z AUTO 01005KT 10SM BKN038 22/12 A3011 RMK AO2 T02160115 PWINO
KPOV 181417Z AUTO 02006KT 10SM SCT032 SCT040 22/13 A3011 RMK AO2 T02160127 PWINO
KPOV 181357Z AUTO 34006KT 10SM SCT029 SCT036 21/13 A3011 RMK AO2 T02100127 PWINO
KPOV 181336Z AUTO 35008KT 10SM SCT027 20/13 A3012 RMK AO2 T02010130 PWINO
KPOV 181317Z AUTO 36007KT 10SM CLR 20/14 A3011 RMK AO2 T02000136 PWINO
KPOV 181256Z AUTO 35004KT 10SM CLR 20/14 A3010 RMK AO2 T01960141 PWINO
KPOV 181237Z AUTO 00000KT 10SM CLR 19/14 A3010 RMK AO2 T01890137 PWINO
KPOV 181217Z AUTO 29004KT 10SM CLR 19/14 A3010 RMK AO2 T01850141 PWINO
KPOV 181157Z AUTO 00000KT 10SM CLR 18/14 A3010 RMK AO2 T01750135 PWINO
KPOV 181136Z AUTO 00000KT 10SM CLR 17/14 A3010 RMK AO2 T01730135 PWINO
KPOV 181116Z AUTO 00000KT 10SM CLR 16/13 A3009 RMK AO2 T01570132 PWINO
KPOV 181056Z AUTO 00000KT 10SM CLR 14/12 A3009 RMK AO2 T01430121 PWINO
KPOV 181037Z AUTO 00000KT 10SM CLR 14/12 A3008 RMK AO2 T01440119 PWINO
KPOV 181017Z AUTO 00000KT 10SM CLR 14/12 A3008 RMK AO2 T01400117 PWINO
KPOV 180957Z AUTO 00000KT 10SM CLR 14/12 A3007 RMK AO2 T01350119 PWINO
KPOV 180936Z AUTO 00000KT 10SM CLR 15/12 A3007 RMK AO2 T01470121 PWINO
KPOV 180917Z AUTO 00000KT 10SM CLR 14/12 A3007 RMK AO2 T01430115 PWINO
KPOV 180857Z AUTO 00000KT 10SM CLR 15/12 A3006 RMK AO2 T01470117 PWINO
KPOV 180836Z AUTO 00000KT 10SM CLR 15/12 A3006 RMK AO2 T01510120 PWINO
KPOV 180816Z AUTO 00000KT 10SM CLR 15/12 A3006 RMK AO2 T01450124 PWINO
KPOV 180757Z AUTO 00000KT 10SM CLR 15/13 A3006 RMK AO2 T01510128 PWINO
KPOV 180736Z AUTO 00000KT 10SM CLR 15/13 A3006 RMK AO2 T01510132 PWINO
KPOV 180717Z AUTO 28004KT 10SM CLR 15/14 A3006 RMK AO2 T01530135 PWINO
KPOV 180657Z AUTO 28003KT 10SM CLR 16/13 A3006 RMK AO2 T01560133 PWINO
KPOV 180637Z AUTO 00000KT 10SM CLR 14/13 A3006 RMK AO2 T01440127 PWINO
KPOV 180616Z AUTO 28004KT 10SM CLR 15/13 A3006 RMK AO2 T01460132 PWINO
KPOV 180557Z AUTO 00000KT 10SM CLR 15/14 A3006 RMK AO2 T01540136 PWINO
KPOV 180536Z AUTO 00000KT 10SM CLR 16/14 A3006 RMK AO2 T01610140 PWINO
KPOV 180517Z AUTO 00000KT 10SM CLR 15/13 A3006 RMK AO2 T01500132 PWINO
KPOV 180457Z AUTO 00000KT 10SM CLR 15/13 A3006 RMK AO2 P0001 T01530131 PWINO
KPOV 180436Z AUTO 00000KT 10SM CLR 16/13 A3006 RMK AO2 T01560127 PWINO
KPOV 180417Z AUTO 00000KT 10SM CLR 16/13 A3006 RMK AO2 T01600126 PWINO
KPOV 180357Z AUTO 00000KT 10SM CLR 16/13 A3005 RMK AO2 T01610129 PWINO
KPOV 180336Z AUTO 00000KT 10SM CLR 16/13 A3005 RMK AO2 T01620130 PWINO
KPOV 180317Z AUTO 00000KT 10SM CLR 18/13 A3004 RMK AO2 T01770129 PWINO
KPOV 180256Z AUTO 02004KT 10SM CLR 18/13 A3004 RMK AO2 T01810128 PWINO
KPOV 180237Z AUTO 00000KT 10SM CLR 18/13 A3004 RMK AO2 T01830129 PWINO
KPOV 180217Z AUTO 00000KT 10SM CLR 19/13 A3004 RMK AO2 T01900127 PWINO
KPOV 180157Z AUTO 02003KT 10SM CLR 19/13 A3003 RMK AO2 T01930127 PWINO
KPOV 180136Z AUTO 02004KT 10SM SCT070 19/13 A3002 RMK AO2 T01910133 PWINO
KPOV 180117Z AUTO 00000KT 10SM CLR 20/13 A3001 RMK AO2 T01990131 PWINO
KPOV 180056Z AUTO 00000KT 10SM CLR 20/13 A3001 RMK AO2 T02020134 PWINO
KPOV 180036Z AUTO 01004KT 10SM CLR 21/13 A3001 RMK AO2 T02090134 PWINO
KPOV 180017Z AUTO 36003KT 10SM SCT044 SCT050 22/14 A3001 RMK AO2 T02190138 PWINO
KPOV 172356Z AUTO 36003KT 10SM SCT046 SCT050 BKN080 22/14 A3000 RMK AO2 T02230140 PWINO
KPOV 172336Z AUTO 01003KT 10SM SCT048 SCT055 BKN080 23/14 A2999 RMK AO2 T02250142 PWINO
KPOV 172317Z AUTO 36005KT 10SM SCT048 BKN060 BKN080 23/14 A2999 RMK AO2 T02280142 PWINO
KPOV 172256Z AUTO 36003KT 10SM SCT070 SCT080 23/15 A2998 RMK AO2 T02260145 PWINO
KPOV 172237Z AUTO 35004KT 10SM SCT055 23/14 A2998 RMK AO2 T02310143 PWINO
KPOV 172217Z AUTO 34005KT 10SM SCT055 SCT070 23/13 A2998 RMK AO2 T02310133 PWINO
KPOV 172156Z AUTO 32004KT 10SM CLR 24/15 A2998 RMK AO2 T02360148 PWINO
KPOV 172136Z AUTO 34007KT 310V010 10SM CLR 24/14 A2998 RMK AO2 T02350139 PWINO
KPOV 172117Z AUTO 34007KT 10SM SCT065 SCT070 24/14 A2998 RMK AO2 T02410136 PWINO
KPOV 172057Z AUTO 34006KT 10SM SCT048 SCT060 SCT065 24/14 A2998 RMK AO2 T02400136 PWINO
KPOV 172037Z AUTO 35009KT 10SM CLR 25/13 A2998 RMK AO2 T02470130 PWINO
KPOV 172017Z AUTO 33011KT 10SM SCT050 26/13 A2998 RMK AO2 T02550126 PWINO
KPOV 171957Z AUTO 33007KT 10SM CLR 25/13 A2998 RMK AO2 T02520128 PWINO
KPOV 171936Z AUTO 34007G14KT 10SM CLR 26/12 A2998 RMK AO2 T02630118 PWINO
KPOV 171917Z AUTO 33007G14KT 10SM CLR 26/13 A2997 RMK AO2 T02630130 PWINO
KPOV 171856Z AUTO 33009KT 10SM SCT055 SCT065 27/13 A2997 RMK AO2 T02660128 PWINO
KPOV 171837Z AUTO 35008KT 290V010 10SM CLR 27/12 A2997 RMK AO2 T02650118 PWINO
KPOV 171816Z AUTO 31008KT 280V340 10SM CLR 27/13 A2997 RMK AO2 T02690126 PWINO
KPOV 171756Z AUTO 31009G15KT 10SM SCT049 27/13 A2997 RMK AO2 T02690133 PWINO
KPOV 171737Z AUTO 33004KT 10SM SCT049 SCT055 26/14 A2997 RMK AO2 T02630144 PWINO
KPOV 171717Z AUTO 36011KT 10SM SCT042 SCT048 SCT055 27/15 A2997 RMK AO2 T02650145 PWINO
KPOV 171656Z AUTO 36007KT 10SM SCT040 SCT050 26/15 A2997 RMK AO2 T02590153 PWINO
KPOV 171636Z AUTO 35008KT 330V030 10SM SCT037 26/16 A2997 RMK AO2 T02640162 PWINO
KPOV 171617Z AUTO 03006KT 10SM SCT038 26/16 A2997 RMK AO2 T02560160 PWINO